Arcadia, Indiana
Current Conditions -  °F | °C
As of 10:35 AM on Saturday 25 Oct 2014 (Local Time) from KTYQ Reporting Station
Clear Clear  
Wind Chill: 62°   Ceiling: Unl
Heat Index: 62°   Visibility: 7mi
Dew Point: 53°   Wind: 8mph
Humidity: 73%   Direction: 270°W
Pressure: 29.98"   Gusts: NA
Location:  40.18°N, 86.02°W
Report Text: KTYQ 251435Z AUTO 27007KT 7SM CLR 17/12 A2998 RMK AO2 T01650116
Loading
Personal Weather Stations






























Interactive Weather Map
Tropical Storm Tracking
New forecast layout! Learn more

10-Day Weather Forecast

Advertisements
Track Severe Weather on mobile